Terminal Aerodrome Forecast
Issued by NWS

Home | Current Version | Previous Version | Text Only | Print | Product List | Glossary On
Versions: 1 2 3 4 5 6 7 8 9 10 11 12 13 14 15 16
000
FTUS43 KMPX 220600 AAA
TAFRWF
TAF AMD
KRWF 220615Z 2206/2306 00000KT 1/4SM FG VV002
     FM221400 36005KT 3SM BR OVC004
     FM221630 02004KT 6SM BR BKN012
     FM221800 03004KT P6SM SCT200=

USA.gov is the U.S. government's official web portal to all federal, state and local government web resources and services.